KAPN/APN METAR and TAF weather

Enter ICAO airport designator
Station Type Date Time Source
KAPN METAR 2018/01/21 11:54 UTC NOAA

KAPN 211154Z AUTO 00000KT 10SM OVC100 M01/M02 A3002 RMK AO2 SLP175 T10111017 11011 21039 53004


Station Type Date Time Source
KAPN Decoded METAR 2018/01/21 11:54 UTC NOAA

ALPENA COUNTY REGIONAL AIRPORT, MI, United States (KAPN) 45-05N 083-34W 210M
Jan 21, 2018 - 06:54 AM EST / 2018.01.21 1154 UTC
Wind: Calm:0
Visibility: 10 mile(s):0
Sky conditions: overcast
Temperature: 30.0 F (-1.1 C)
Dew Point: 28.9 F (-1.7 C)
Relative Humidity: 95%
Pressure (altimeter): 30.02 in. Hg (1016 hPa)
Pressure tendency: 0.01 inches (0.4 hPa) higher than three hours ago
ob: KAPN 211154Z AUTO 00000KT 10SM OVC100 M01/M02 A3002 RMK AO2 SLP175 T10111017 11011 21039 53004
cycle: 12

Station Type Date Time Source
KAPN TAF 2018/01/21 12:22 UTC NOAA

TAF KAPN 211120Z 2112/2212 00000KT P6SM BKN100
FM211700 VRB03KT P6SM OVC030
FM220000 08005KT 3SM BR OVC015
FM220600 07006KT 2SM -FZDZ BR OVC008


Example: see airport list